Flight Track Log - Related Links

Times and Time Zones

All times are in EDT time to prevent confusion due to time zone crossing. See the N612CT flight status page for this flight to view local times or setup timezone preferences in your user account.

Time Position Orientation Groundspeed Altitude Reporting Facility
EDT Latitude Longitude Course Direction KTS MPH feet Rate Location/Type
Tue 09:47:48 AM 27.0833 -82.4333 147° Southeast 83 96 700  Level Tampa TRACON
Tue 09:48:48 AM 27.0833 -82.4000 90° East 95 109 1,400 700 Climbing Tampa TRACON
Tue 09:50:00 AM 27.0290 -82.3909 172° South  Level FlightAware Approximate
Tue 09:53:00 AM 26.8343 -82.2702 147° Southeast  Level FlightAware Approximate
Tue 09:57:00 AM 26.7498 -82.2087 147° Southeast  Level FlightAware Approximate
Tue 09:58:00 AM 26.7114 -82.1808 147° Southeast  Level FlightAware Approximate
Tue 09:59:00 AM 26.6730 -82.1529 147° Southeast  Level FlightAware Approximate
Tue 10:00:00 AM 26.6346 -82.1251 147° Southeast  Level FlightAware Approximate
Tue 10:01:00 AM 26.5962 -82.0972 147° Southeast  Level FlightAware Approximate
Tue 10:02:00 AM 26.5577 -82.0694 147° Southeast  Level FlightAware Approximate
Tue 10:03:00 AM 26.5193 -82.0416 147° Southeast  Level FlightAware Approximate
Tue 10:04:00 AM 26.4809 -82.0138 147° Southeast  Level FlightAware Approximate
Tue 10:05:00 AM 26.4424 -81.9860 147° Southeast  Level FlightAware Approximate
Tue 10:06:00 AM 26.4040 -81.9583 147° Southeast  Level FlightAware Approximate
Tue 10:07:00 AM 26.3655 -81.9305 147° Southeast  Level FlightAware Approximate
Tue 10:08:00 AM 26.3271 -81.9028 147° Southeast  Level FlightAware Approximate
Tue 10:09:00 AM 26.2890 -81.8745 144° Southeast  Level FlightAware Approximate
Tue 10:10:00 AM 26.2518 -81.8447 144° Southeast  Level FlightAware Approximate
Tue 10:11:00 AM 26.2145 -81.8151 146° Southeast  Level FlightAware Approximate
Tue 10:12:00 AM 26.1765 -81.7866 146° Southeast  Level FlightAware Approximate
Tue 10:13:00 AM 26.1500 -81.7667 146° Southeast  Level FlightAware Approximate
Tue 10:14:00 AM 26.1524 -81.7756 146° Southeast  Level Estimated
Tue 10:15:00 AM 26.1524 -81.7756 146° Southeast  Level Estimated
Tue 10:16:00 AM 26.1524 -81.7756 146° Southeast  Level Estimated
Tue 10:17:00 AM 26.1524 -81.7756 146° Southeast  Level Estimated
Tue 10:18:00 AM 26.1524 -81.7756 146° Southeast  Level Estimated
Tue 10:19:00 AM 26.1524 -81.7756 146° Southeast  Level Estimated
Tue 10:20:00 AM 26.1524 -81.7756 146° Southeast  Level Estimated
Tue 10:21:00 AM 26.1524 -81.7756 146° Southeast  Level Estimated
Tue 10:22:00 AM 26.1524 -81.7756 146° Southeast  Level Estimated
Tue 10:23:00 AM 26.1524 -81.7756 146° Southeast  Level Estimated
Tue 10:24:00 AM 26.1524 -81.7756 146° Southeast  Level Estimated
Tue 10:25:00 AM 26.1524 -81.7756 146° Southeast  Level Estimated
Tue 10:26:00 AM 26.1524 -81.7756 146° Southeast  Level Estimated

Login

Don't have an account? Register now (free) for customized features, flight alerts, and more!